createdAt,value
2023-04-16T00:00:14.599Z,11.47
2023-04-16T00:02:42.717Z,11.47
2023-04-16T00:05:13.576Z,11.47
2023-04-16T00:07:42.262Z,11.41
2023-04-16T00:10:10.595Z,11.35
2023-04-16T00:12:38.617Z,11.38
2023-04-16T00:15:07.358Z,11.31
2023-04-16T00:17:35.382Z,11.31
2023-04-16T00:20:03.578Z,11.33
2023-04-16T00:22:32.983Z,11.20
2023-04-16T00:25:00.915Z,11.13
2023-04-16T00:27:28.853Z,11.08
2023-04-16T00:29:56.846Z,11.03
2023-04-16T00:32:24.953Z,11.04
2023-04-16T00:34:53.001Z,11.04
2023-04-16T00:37:20.975Z,11.01
2023-04-16T00:39:50.321Z,10.99
2023-04-16T00:42:18.237Z,10.92
2023-04-16T00:44:46.203Z,10.76
2023-04-16T00:47:14.205Z,10.70
2023-04-16T00:49:42.560Z,10.57
2023-04-16T00:52:12.685Z,10.53
2023-04-16T00:54:41.131Z,10.30
2023-04-16T00:57:11.200Z,10.36
2023-04-16T00:59:39.145Z,10.20
2023-04-16T01:02:07.419Z,10.10
2023-04-16T01:04:36.464Z,10.13
2023-04-16T01:07:04.517Z,10.05
2023-04-16T01:09:32.408Z,9.82
2023-04-16T01:12:00.476Z,9.71
2023-04-16T01:14:29.772Z,9.77
2023-04-16T01:16:57.758Z,9.74
2023-04-16T01:19:25.767Z,9.61
2023-04-16T01:21:55.044Z,9.77
2023-04-16T01:24:23.041Z,9.78
2023-04-16T01:26:50.966Z,9.78
2023-04-16T01:29:18.837Z,9.76
2023-04-16T01:31:47.490Z,9.81
2023-04-16T01:34:15.537Z,9.50
2023-04-16T01:36:43.519Z,9.82
2023-04-16T01:39:15.750Z,9.67
2023-04-16T01:41:43.987Z,9.73
2023-04-16T01:44:12.003Z,9.70
2023-04-16T01:46:40.796Z,9.78
2023-04-16T01:49:08.981Z,9.66
2023-04-16T01:51:37.037Z,9.62
2023-04-16T01:54:05.105Z,9.60
2023-04-16T01:56:35.554Z,9.64
2023-04-16T01:59:03.521Z,9.53
2023-04-16T02:01:31.860Z,9.04
2023-04-16T02:04:00.318Z,9.16
2023-04-16T02:06:28.644Z,9.46
2023-04-16T02:08:56.705Z,9.57
2023-04-16T02:11:24.684Z,9.45
2023-04-16T02:13:54.026Z,9.43
2023-04-16T02:16:21.953Z,9.36
2023-04-16T02:18:49.985Z,9.26
2023-04-16T02:21:18.026Z,9.33
2023-04-16T02:23:47.978Z,9.26
2023-04-16T02:26:15.954Z,9.39
2023-04-16T02:28:43.883Z,9.43
2023-04-16T02:31:14.981Z,9.46
2023-04-16T02:33:42.945Z,9.31
2023-04-16T02:36:12.929Z,9.50
2023-04-16T02:38:40.940Z,9.47
2023-04-16T02:41:08.955Z,9.51
2023-04-16T02:43:36.993Z,9.47
2023-04-16T02:46:05.089Z,9.41
2023-04-16T02:48:34.497Z,9.40
2023-04-16T02:51:02.473Z,9.39
2023-04-16T02:53:30.435Z,9.20
2023-04-16T02:55:58.461Z,9.36
2023-04-16T02:58:27.569Z,9.31
2023-04-16T03:00:56.089Z,9.31
2023-04-16T03:03:24.130Z,9.34
2023-04-16T03:05:53.504Z,9.37
2023-04-16T03:08:21.439Z,9.34
2023-04-16T03:10:49.432Z,9.35
2023-04-16T03:13:17.397Z,9.33
2023-04-16T03:15:49.769Z,9.28
2023-04-16T03:18:17.859Z,9.13
2023-04-16T03:20:45.956Z,9.39
2023-04-16T03:23:15.297Z,9.35
2023-04-16T03:25:46.709Z,9.42
2023-04-16T03:28:14.712Z,9.40
2023-04-16T03:30:42.629Z,9.37
2023-04-16T03:33:10.812Z,9.30
2023-04-16T03:35:38.834Z,9.20
2023-04-16T03:38:06.807Z,8.99
2023-04-16T03:40:36.155Z,9.10
2023-04-16T03:43:04.111Z,9.04
2023-04-16T03:45:32.045Z,8.90
2023-04-16T03:47:59.994Z,8.93
2023-04-16T03:50:27.974Z,8.93
2023-04-16T03:52:56.033Z,8.88
2023-04-16T03:55:23.966Z,8.79
2023-04-16T03:57:53.270Z,8.41
2023-04-16T04:00:21.386Z,8.80
2023-04-16T04:02:49.390Z,8.44
2023-04-16T04:05:17.741Z,8.79
2023-04-16T04:07:45.790Z,8.83
2023-04-16T04:10:14.125Z,8.89
2023-04-16T04:12:42.069Z,8.87
2023-04-16T04:15:13.083Z,8.58
2023-04-16T04:17:41.136Z,9.01
2023-04-16T04:20:09.785Z,9.15
2023-04-16T04:22:37.739Z,9.09
2023-04-16T04:25:06.437Z,8.98
2023-04-16T04:27:34.379Z,9.24
2023-04-16T04:30:02.392Z,9.29
2023-04-16T04:32:31.750Z,9.31
2023-04-16T04:35:01.294Z,8.76
2023-04-16T04:37:30.604Z,9.30
2023-04-16T04:39:58.546Z,9.33
2023-04-16T04:42:27.303Z,9.31
2023-04-16T04:44:55.249Z,9.29
2023-04-16T04:47:23.256Z,9.43
2023-04-16T04:49:52.792Z,9.39
2023-04-16T04:52:21.610Z,9.42
2023-04-16T04:54:49.609Z,9.16
2023-04-16T04:57:17.690Z,9.43
2023-04-16T04:59:45.704Z,9.44
2023-04-16T05:02:13.723Z,9.47
2023-04-16T05:04:41.926Z,9.44
2023-04-16T05:07:11.317Z,9.35
2023-04-16T05:09:39.243Z,9.42
2023-04-16T05:12:07.269Z,9.09
2023-04-16T05:14:36.366Z,9.36
2023-04-16T05:17:04.384Z,9.50
2023-04-16T05:19:32.505Z,9.51
2023-04-16T05:22:02.500Z,9.63
2023-04-16T05:24:31.843Z,9.44
2023-04-16T05:26:59.789Z,9.74
2023-04-16T05:29:27.720Z,9.75
2023-04-16T05:31:55.672Z,9.69
2023-04-16T05:34:23.660Z,9.97
2023-04-16T05:36:51.609Z,9.99
2023-04-16T05:39:19.912Z,10.10
2023-04-16T05:41:49.288Z,9.92
2023-04-16T05:44:17.213Z,10.15
2023-04-16T05:46:45.176Z,10.12
2023-04-16T05:49:13.105Z,10.19
2023-04-16T05:51:41.210Z,10.16
2023-04-16T05:54:09.139Z,10.30
2023-04-16T05:56:37.162Z,10.23
2023-04-16T05:59:06.531Z,10.25
2023-04-16T06:01:35.748Z,10.26
2023-04-16T06:04:04.831Z,10.27
2023-04-16T06:06:33.121Z,10.49
2023-04-16T06:09:01.220Z,10.54
2023-04-16T06:11:30.931Z,10.44
2023-04-16T06:13:58.880Z,10.63
2023-04-16T06:16:28.261Z,10.86
2023-04-16T06:18:56.588Z,11.02
2023-04-16T06:21:24.734Z,11.28
2023-04-16T06:23:52.875Z,11.80
2023-04-16T06:26:20.882Z,12.10
2023-04-16T06:28:49.090Z,12.30
2023-04-16T06:31:17.163Z,12.27
2023-04-16T06:33:46.764Z,12.53
2023-04-16T06:36:14.991Z,12.18
2023-04-16T06:38:43.012Z,12.56
2023-04-16T06:41:11.045Z,12.59
2023-04-16T06:43:39.178Z,12.86
2023-04-16T06:46:07.128Z,13.36
2023-04-16T06:48:35.110Z,13.81
2023-04-16T06:51:04.649Z,14.35
2023-04-16T06:53:33.112Z,14.34
2023-04-16T06:56:01.089Z,14.04
2023-04-16T06:58:29.550Z,13.87
2023-04-16T07:00:57.713Z,13.69
2023-04-16T07:03:26.480Z,13.86
2023-04-16T07:05:54.896Z,13.96
2023-04-16T07:08:26.350Z,14.26
2023-04-16T07:10:55.005Z,14.43
2023-04-16T07:13:23.264Z,14.06
2023-04-16T07:15:51.249Z,14.27
2023-04-16T07:18:20.706Z,14.00
2023-04-16T07:20:49.477Z,13.73
2023-04-16T07:23:17.463Z,13.84
2023-04-16T07:25:46.816Z,14.08
2023-04-16T07:28:16.704Z,14.06
2023-04-16T07:30:44.889Z,14.37
2023-04-16T07:33:12.818Z,14.26
2023-04-16T07:35:40.772Z,14.51
2023-04-16T07:38:08.698Z,14.73
2023-04-16T07:40:38.614Z,14.99
2023-04-16T07:43:08.368Z,14.34
2023-04-16T07:45:36.410Z,14.64
2023-04-16T07:48:05.450Z,14.93
2023-04-16T07:50:33.715Z,14.91
2023-04-16T07:53:01.755Z,15.21
2023-04-16T07:55:29.758Z,15.39
2023-04-16T07:57:57.688Z,15.41
2023-04-16T08:00:27.993Z,15.39
2023-04-16T08:02:56.581Z,15.10
2023-04-16T08:05:24.785Z,15.38
2023-04-16T08:07:52.816Z,15.84
2023-04-16T08:10:20.851Z,16.48
2023-04-16T08:12:48.767Z,17.02
2023-04-16T08:15:16.849Z,17.13
2023-04-16T08:17:46.379Z,17.78
2023-04-16T08:20:17.020Z,18.53
2023-04-16T08:22:47.301Z,18.89
2023-04-16T08:25:15.654Z,19.51
2023-04-16T08:27:43.806Z,19.44
2023-04-16T08:30:12.295Z,18.66
2023-04-16T08:32:40.415Z,18.10
2023-04-16T08:35:10.970Z,18.35
2023-04-16T08:37:38.987Z,18.59
2023-04-16T08:40:08.274Z,18.77
2023-04-16T08:42:45.062Z,18.85
2023-04-16T08:45:17.929Z,19.44
2023-04-16T08:47:48.172Z,19.20
2023-04-16T08:50:18.935Z,19.37
2023-04-16T08:52:52.066Z,20.17
2023-04-16T08:55:22.582Z,20.55
2023-04-16T08:57:54.608Z,20.64
2023-04-16T09:00:22.961Z,19.64
2023-04-16T09:02:51.844Z,20.27
2023-04-16T09:05:25.554Z,19.58
2023-04-16T09:07:54.322Z,19.71
2023-04-16T09:10:23.052Z,19.56
2023-04-16T09:12:51.307Z,20.00
2023-04-16T09:15:22.197Z,19.97
2023-04-16T09:17:50.200Z,19.69
2023-04-16T09:20:18.211Z,20.09
2023-04-16T09:22:48.481Z,20.11
2023-04-16T09:25:16.676Z,19.56
2023-04-16T09:27:45.460Z,20.12
2023-04-16T09:30:24.056Z,20.45
2023-04-16T09:32:53.245Z,20.81
2023-04-16T09:35:21.711Z,21.44
2023-04-16T09:37:58.987Z,22.76
2023-04-16T09:40:30.522Z,22.30
2023-04-16T09:43:00.971Z,21.65
2023-04-16T09:45:32.858Z,21.02
2023-04-16T09:48:05.726Z,21.08
2023-04-16T09:50:33.805Z,21.17
2023-04-16T09:53:04.690Z,21.17
2023-04-16T09:55:33.814Z,21.40
2023-04-16T09:58:02.733Z,20.80
2023-04-16T10:00:31.919Z,20.19
2023-04-16T10:03:06.874Z,19.73
2023-04-16T10:05:35.684Z,20.45
2023-04-16T10:08:12.294Z,20.34
2023-04-16T10:10:40.517Z,20.19
2023-04-16T10:13:08.964Z,19.99
2023-04-16T10:15:37.306Z,19.91
2023-04-16T10:18:06.426Z,20.12
2023-04-16T10:20:34.589Z,19.22
2023-04-16T10:23:04.871Z,19.12
2023-04-16T10:25:33.732Z,19.23
2023-04-16T10:28:01.921Z,19.66
2023-04-16T10:30:30.601Z,19.55
2023-04-16T10:33:00.563Z,19.37
2023-04-16T10:35:28.774Z,19.17
2023-04-16T10:37:58.129Z,19.42
2023-04-16T10:40:29.536Z,19.07
2023-04-16T10:42:58.266Z,19.87
2023-04-16T10:45:33.693Z,20.88
2023-04-16T10:48:08.719Z,22.40
2023-04-16T10:50:39.769Z,23.61
2023-04-16T10:53:25.774Z,23.90
2023-04-16T10:56:13.065Z,23.86
2023-04-16T10:58:41.232Z,23.54
2023-04-16T11:01:13.437Z,23.73
2023-04-16T11:03:48.451Z,24.24
2023-04-16T11:06:18.068Z,23.64
2023-04-16T11:08:54.432Z,22.51
2023-04-16T11:11:25.004Z,22.40
2023-04-16T11:13:58.006Z,21.72
2023-04-16T11:16:28.466Z,21.42
2023-04-16T11:18:57.228Z,21.07
2023-04-16T11:21:26.727Z,20.53
2023-04-16T11:23:55.182Z,20.03
2023-04-16T11:26:28.912Z,19.89
2023-04-16T11:28:57.509Z,19.84
2023-04-16T11:31:27.345Z,20.00
2023-04-16T11:33:57.884Z,19.96
2023-04-16T11:36:27.837Z,19.97
2023-04-16T11:39:03.787Z,19.77
2023-04-16T11:41:33.231Z,20.36
2023-04-16T11:44:01.411Z,20.28
2023-04-16T11:46:40.150Z,20.11
2023-04-16T11:49:08.349Z,19.79
2023-04-16T11:51:41.154Z,20.01
2023-04-16T11:54:12.315Z,19.95
2023-04-16T11:56:47.882Z,20.06
2023-04-16T11:59:17.748Z,19.68
2023-04-16T12:01:49.755Z,20.23
2023-04-16T12:04:20.322Z,20.04
2023-04-16T12:07:11.374Z,20.10
2023-04-16T12:09:41.060Z,20.94
2023-04-16T12:12:31.179Z,21.22
2023-04-16T12:15:03.267Z,21.18
2023-04-16T12:17:31.526Z,20.93
2023-04-16T12:20:00.787Z,21.28
2023-04-16T12:22:30.473Z,21.21
2023-04-16T12:25:03.109Z,21.19
2023-04-16T12:27:47.052Z,21.42
2023-04-16T12:30:16.220Z,21.35
2023-04-16T12:32:46.056Z,21.05
2023-04-16T12:35:14.521Z,20.80
2023-04-16T12:37:42.635Z,20.48
2023-04-16T12:40:11.518Z,20.14
2023-04-16T12:42:39.612Z,19.95
2023-04-16T12:45:09.614Z,19.81
2023-04-16T12:47:37.504Z,19.95
2023-04-16T12:50:06.085Z,19.72
2023-04-16T12:52:34.084Z,19.49
2023-04-16T12:55:03.063Z,19.56
2023-04-16T12:57:31.183Z,19.49
2023-04-16T13:00:02.117Z,19.25
2023-04-16T13:02:32.535Z,19.32
2023-04-16T13:05:00.666Z,19.40
2023-04-16T13:07:29.195Z,19.65
2023-04-16T13:09:57.118Z,19.59
2023-04-16T13:12:25.060Z,19.31
2023-04-16T13:14:53.070Z,19.11
2023-04-16T13:17:21.116Z,19.11
2023-04-16T13:19:50.446Z,19.06
2023-04-16T13:22:18.682Z,18.91
2023-04-16T13:24:46.983Z,18.75
2023-04-16T13:27:16.175Z,18.74
2023-04-16T13:29:44.696Z,18.73
2023-04-16T13:32:13.838Z,18.55
2023-04-16T13:34:42.051Z,18.46
2023-04-16T13:37:11.469Z,18.23
2023-04-16T13:39:39.411Z,18.02
2023-04-16T13:42:07.523Z,17.92
2023-04-16T13:44:35.589Z,17.61
2023-04-16T13:47:03.753Z,17.42
2023-04-16T13:49:35.649Z,17.30
2023-04-16T13:52:04.071Z,17.24
2023-04-16T13:54:33.605Z,17.17
2023-04-16T13:57:03.157Z,16.69
2023-04-16T13:59:31.225Z,16.83
2023-04-16T14:01:59.232Z,16.63
2023-04-16T14:04:27.306Z,16.78
2023-04-16T14:06:55.503Z,16.76
2023-04-16T14:09:23.479Z,16.93
2023-04-16T14:11:53.039Z,16.90
2023-04-16T14:14:21.042Z,16.77
2023-04-16T14:16:49.276Z,16.65
2023-04-16T14:19:17.568Z,16.22
2023-04-16T14:21:45.813Z,16.52
2023-04-16T14:24:14.173Z,16.08
2023-04-16T14:26:44.254Z,16.16
2023-04-16T14:29:13.936Z,16.03
2023-04-16T14:31:42.159Z,15.84
2023-04-16T14:34:10.414Z,14.79
2023-04-16T14:36:38.440Z,15.35
2023-04-16T14:39:06.591Z,15.28
2023-04-16T14:41:34.641Z,15.12
2023-04-16T14:44:04.287Z,14.97
2023-04-16T14:46:33.774Z,14.49
2023-04-16T14:49:02.160Z,14.75
2023-04-16T14:51:30.171Z,14.62
2023-04-16T14:53:58.382Z,14.50
2023-04-16T14:56:26.495Z,14.31
2023-04-16T14:58:54.496Z,14.30
2023-04-16T15:01:22.622Z,14.24
2023-04-16T15:03:52.202Z,14.17
2023-04-16T15:06:20.350Z,13.99
2023-04-16T15:08:48.400Z,14.21
2023-04-16T15:11:16.398Z,14.17
2023-04-16T15:13:44.381Z,14.08
2023-04-16T15:16:13.081Z,13.97
2023-04-16T15:18:41.185Z,13.94
2023-04-16T15:21:12.526Z,13.99
2023-04-16T15:23:40.866Z,13.71
2023-04-16T15:26:08.987Z,13.82
2023-04-16T15:28:36.987Z,13.80
2023-04-16T15:31:05.233Z,13.79
2023-04-16T15:33:33.443Z,13.72
2023-04-16T15:36:01.521Z,13.57
2023-04-16T15:38:31.361Z,13.57
2023-04-16T15:41:00.956Z,13.56
2023-04-16T15:43:29.993Z,13.49
2023-04-16T15:45:57.988Z,13.45
2023-04-16T15:48:26.104Z,13.43
2023-04-16T15:50:55.761Z,13.38
2023-04-16T15:53:24.127Z,13.22
2023-04-16T15:55:53.978Z,13.37
2023-04-16T15:58:23.069Z,13.28
2023-04-16T16:00:51.054Z,13.20
2023-04-16T16:03:19.592Z,13.10
2023-04-16T16:05:48.602Z,13.06
2023-04-16T16:08:16.885Z,13.08
2023-04-16T16:10:44.905Z,12.99
2023-04-16T16:13:18.120Z,12.97
2023-04-16T16:15:47.189Z,12.78
2023-04-16T16:18:15.190Z,12.88
2023-04-16T16:20:43.327Z,13.00
2023-04-16T16:23:11.611Z,12.85
2023-04-16T16:25:39.661Z,12.68
2023-04-16T16:28:08.089Z,12.57
2023-04-16T16:30:37.374Z,12.76
2023-04-16T16:33:05.628Z,12.64
2023-04-16T16:35:33.810Z,12.71
2023-04-16T16:38:01.926Z,12.60
2023-04-16T16:40:30.353Z,12.50
2023-04-16T16:42:58.621Z,12.55
2023-04-16T16:45:27.287Z,12.56
2023-04-16T16:47:58.940Z,12.60
2023-04-16T16:50:27.009Z,12.42
2023-04-16T16:52:54.949Z,12.63
2023-04-16T16:55:23.212Z,12.45
2023-04-16T16:57:51.366Z,12.52
2023-04-16T17:00:21.767Z,12.46
2023-04-16T17:02:51.385Z,12.43
2023-04-16T17:05:21.332Z,12.39
2023-04-16T17:07:49.663Z,12.43
2023-04-16T17:10:20.543Z,12.39
2023-04-16T17:12:49.257Z,12.44
2023-04-16T17:15:21.199Z,12.22
2023-04-16T17:17:50.001Z,12.33
2023-04-16T17:20:18.161Z,12.36
2023-04-16T17:22:47.474Z,12.53
2023-04-16T17:25:15.920Z,12.47
2023-04-16T17:27:44.119Z,12.34
2023-04-16T17:30:12.739Z,12.46
2023-04-16T17:32:40.867Z,12.39
2023-04-16T17:35:11.085Z,12.29
2023-04-16T17:37:39.253Z,12.36
2023-04-16T17:40:10.246Z,12.26
2023-04-16T17:42:38.962Z,12.33
2023-04-16T17:45:09.826Z,12.24
2023-04-16T17:47:38.239Z,12.18
2023-04-16T17:50:07.583Z,12.13
2023-04-16T17:52:37.691Z,12.16
2023-04-16T17:55:06.105Z,12.07
2023-04-16T17:57:35.835Z,12.00
2023-04-16T18:00:05.754Z,11.89
2023-04-16T18:02:34.136Z,11.92
2023-04-16T18:05:02.326Z,11.85
2023-04-16T18:07:30.441Z,11.83
2023-04-16T18:09:58.784Z,11.72
2023-04-16T18:12:26.843Z,11.82
2023-04-16T18:14:56.355Z,11.91
2023-04-16T18:17:24.447Z,11.90
2023-04-16T18:19:52.655Z,11.90
2023-04-16T18:22:21.425Z,11.43
2023-04-16T18:24:49.661Z,11.82
2023-04-16T18:27:21.553Z,11.64
2023-04-16T18:29:50.176Z,11.79
2023-04-16T18:32:20.833Z,11.83
2023-04-16T18:34:49.297Z,11.53
2023-04-16T18:37:17.645Z,11.17
2023-04-16T18:39:45.886Z,11.79
2023-04-16T18:42:14.045Z,11.75
2023-04-16T18:44:42.447Z,11.78
2023-04-16T18:47:10.633Z,11.82
2023-04-16T18:49:40.142Z,11.81
2023-04-16T18:52:08.851Z,11.77
2023-04-16T18:54:38.084Z,11.78
2023-04-16T18:57:08.835Z,11.83
2023-04-16T18:59:37.003Z,11.79
2023-04-16T19:02:05.129Z,11.80
2023-04-16T19:04:33.294Z,11.44
2023-04-16T19:07:02.798Z,11.38
2023-04-16T19:09:31.121Z,11.14
2023-04-16T19:11:59.159Z,11.57
2023-04-16T19:14:27.361Z,11.68
2023-04-16T19:16:57.941Z,11.74
2023-04-16T19:19:25.940Z,11.75
2023-04-16T19:21:54.269Z,11.92
2023-04-16T19:24:23.732Z,11.97
2023-04-16T19:26:51.690Z,11.90
2023-04-16T19:29:19.670Z,11.86
2023-04-16T19:31:48.248Z,11.74
2023-04-16T19:34:16.847Z,11.81
2023-04-16T19:36:45.559Z,11.58
2023-04-16T19:39:13.580Z,11.98
2023-04-16T19:41:42.852Z,12.00
2023-04-16T19:44:11.089Z,11.90
2023-04-16T19:46:39.037Z,11.89
2023-04-16T19:49:07.419Z,11.93
2023-04-16T19:51:35.606Z,11.74
2023-04-16T19:54:03.577Z,11.94
2023-04-16T19:56:31.607Z,11.96
2023-04-16T19:59:02.174Z,11.96
2023-04-16T20:01:31.228Z,11.97
2023-04-16T20:03:59.296Z,11.99
2023-04-16T20:06:27.825Z,12.05
2023-04-16T20:08:56.746Z,12.05
2023-04-16T20:11:24.813Z,11.98
2023-04-16T20:13:53.062Z,11.93
2023-04-16T20:16:24.119Z,11.91
2023-04-16T20:18:54.350Z,12.15
2023-04-16T20:21:22.783Z,11.69
2023-04-16T20:23:50.745Z,12.03
2023-04-16T20:26:19.385Z,12.00
2023-04-16T20:28:47.602Z,12.06
2023-04-16T20:31:15.734Z,11.88
2023-04-16T20:33:45.024Z,11.89
2023-04-16T20:36:13.245Z,12.04
2023-04-16T20:38:42.435Z,12.13
2023-04-16T20:41:20.971Z,12.10
2023-04-16T20:43:53.045Z,11.88
2023-04-16T20:46:24.420Z,12.03
2023-04-16T20:48:54.080Z,12.05
2023-04-16T20:51:22.559Z,12.06
2023-04-16T20:53:52.268Z,12.09
2023-04-16T20:56:20.630Z,12.10
2023-04-16T20:58:48.697Z,12.09
2023-04-16T21:01:18.486Z,12.10
2023-04-16T21:03:46.709Z,12.04
2023-04-16T21:06:17.751Z,12.08
2023-04-16T21:08:45.776Z,12.01
2023-04-16T21:11:13.732Z,12.05
2023-04-16T21:13:41.750Z,11.99
2023-04-16T21:16:12.477Z,11.91
2023-04-16T21:18:40.875Z,11.85
2023-04-16T21:21:08.895Z,11.81
2023-04-16T21:23:38.398Z,11.70
2023-04-16T21:26:06.412Z,11.72
2023-04-16T21:28:34.382Z,11.63
2023-04-16T21:31:02.309Z,11.57
2023-04-16T21:33:30.603Z,11.30
2023-04-16T21:35:58.671Z,11.43
2023-04-16T21:38:26.671Z,11.38
2023-04-16T21:40:56.740Z,11.45
2023-04-16T21:43:25.159Z,11.37
2023-04-16T21:45:53.924Z,11.27
2023-04-16T21:48:21.903Z,11.42
2023-04-16T21:50:56.121Z,11.42
2023-04-16T21:53:24.063Z,11.34
2023-04-16T21:55:52.344Z,11.39
2023-04-16T21:58:21.769Z,11.35
2023-04-16T22:00:49.799Z,11.37
2023-04-16T22:03:18.757Z,11.41
2023-04-16T22:05:47.076Z,11.40
2023-04-16T22:08:24.035Z,11.40
2023-04-16T22:10:52.789Z,11.42
2023-04-16T22:13:22.843Z,11.37
2023-04-16T22:15:50.855Z,11.20
2023-04-16T22:18:19.057Z,11.36
2023-04-16T22:20:47.314Z,11.38
2023-04-16T22:23:15.879Z,11.41
2023-04-16T22:25:46.245Z,11.46
2023-04-16T22:28:14.215Z,11.49
2023-04-16T22:30:43.536Z,11.48
2023-04-16T22:33:11.579Z,11.49
2023-04-16T22:35:39.881Z,11.51
2023-04-16T22:38:07.837Z,11.50
2023-04-16T22:40:35.873Z,11.50
2023-04-16T22:43:03.806Z,11.38
2023-04-16T22:45:31.784Z,11.50
2023-04-16T22:48:01.214Z,11.47
2023-04-16T22:50:31.471Z,11.36
2023-04-16T22:52:59.535Z,11.41
2023-04-16T22:55:27.604Z,11.34
2023-04-16T22:57:55.646Z,11.33
2023-04-16T23:00:24.962Z,11.34
2023-04-16T23:02:53.038Z,10.99
2023-04-16T23:05:22.606Z,11.28
2023-04-16T23:07:50.621Z,11.19
2023-04-16T23:10:18.702Z,11.21
2023-04-16T23:12:46.683Z,11.16
2023-04-16T23:15:14.607Z,10.99
2023-04-16T23:17:42.683Z,11.25
2023-04-16T23:20:12.263Z,11.26
2023-04-16T23:22:41.898Z,11.27
2023-04-16T23:25:10.995Z,11.30
2023-04-16T23:27:39.073Z,11.30
2023-04-16T23:30:08.316Z,11.02
2023-04-16T23:32:36.331Z,11.27
2023-04-16T23:35:04.364Z,11.22
2023-04-16T23:37:32.449Z,11.19
2023-04-16T23:40:01.885Z,11.19
2023-04-16T23:42:29.834Z,11.13
2023-04-16T23:44:57.849Z,11.12
2023-04-16T23:47:25.830Z,11.21
2023-04-16T23:49:53.852Z,11.19
2023-04-16T23:52:21.972Z,11.15
2023-04-16T23:54:49.926Z,11.09
2023-04-16T23:57:19.183Z,10.66
2023-04-16T23:59:47.154Z,10.89
